sensor_id;sensor_type;location;lat;lon;timestamp;P1;durP1;ratioP1;P2;durP2;ratioP2
31716;SDS011;18301;51.076;17.046;2023-09-19T00:04:40;2.35;;;1.83;;
31716;SDS011;18301;51.076;17.046;2023-09-19T00:09:44;5.63;;;2.33;;
31716;SDS011;18301;51.076;17.046;2023-09-19T00:14:45;7.18;;;2.45;;
31716;SDS011;18301;51.076;17.046;2023-09-19T00:19:47;3.85;;;2.00;;
31716;SDS011;18301;51.076;17.046;2023-09-19T00:24:52;5.25;;;2.20;;
31716;SDS011;18301;51.076;17.046;2023-09-19T00:29:54;2.72;;;2.00;;
31716;SDS011;18301;51.076;17.046;2023-09-19T00:34:57;4.45;;;1.67;;
31716;SDS011;18301;51.076;17.046;2023-09-19T00:39:59;5.10;;;1.83;;
31716;SDS011;18301;51.076;17.046;2023-09-19T00:45:00;3.90;;;1.80;;
31716;SDS011;18301;51.076;17.046;2023-09-19T00:50:04;4.75;;;1.70;;
31716;SDS011;18301;51.076;17.046;2023-09-19T00:55:09;2.35;;;1.52;;
31716;SDS011;18301;51.076;17.046;2023-09-19T01:00:12;3.33;;;1.60;;
31716;SDS011;18301;51.076;17.046;2023-09-19T01:05:16;3.30;;;1.75;;
31716;SDS011;18301;51.076;17.046;2023-09-19T01:10:19;4.80;;;1.98;;
31716;SDS011;18301;51.076;17.046;2023-09-19T01:15:35;3.00;;;1.42;;
31716;SDS011;18301;51.076;17.046;2023-09-19T01:32:11;4.70;;;1.77;;
31716;SDS011;18301;51.076;17.046;2023-09-19T01:37:16;4.40;;;1.50;;
31716;SDS011;18301;51.076;17.046;2023-09-19T01:52:54;2.13;;;1.40;;
31716;SDS011;18301;51.076;17.046;2023-09-19T01:58:01;4.63;;;1.92;;
31716;SDS011;18301;51.076;17.046;2023-09-19T02:03:09;4.00;;;1.85;;
31716;SDS011;18301;51.076;17.046;2023-09-19T02:08:13;2.47;;;1.23;;
31716;SDS011;18301;51.076;17.046;2023-09-19T02:13:18;3.40;;;1.77;;
31716;SDS011;18301;51.076;17.046;2023-09-19T02:18:20;4.40;;;1.80;;
31716;SDS011;18301;51.076;17.046;2023-09-19T02:23:23;3.85;;;1.45;;
31716;SDS011;18301;51.076;17.046;2023-09-19T02:28:24;5.82;;;1.40;;
31716;SDS011;18301;51.076;17.046;2023-09-19T02:33:31;3.17;;;1.42;;
31716;SDS011;18301;51.076;17.046;2023-09-19T02:38:34;6.10;;;1.80;;
31716;SDS011;18301;51.076;17.046;2023-09-19T02:43:35;3.53;;;1.65;;
31716;SDS011;18301;51.076;17.046;2023-09-19T02:48:37;2.67;;;1.40;;
31716;SDS011;18301;51.076;17.046;2023-09-19T02:53:39;3.13;;;1.60;;
31716;SDS011;18301;51.076;17.046;2023-09-19T02:58:41;2.38;;;1.55;;
31716;SDS011;18301;51.076;17.046;2023-09-19T03:03:44;2.42;;;1.40;;
31716;SDS011;18301;51.076;17.046;2023-09-19T03:08:46;4.40;;;1.48;;
31716;SDS011;18301;51.076;17.046;2023-09-19T03:13:54;4.07;;;1.80;;
31716;SDS011;18301;51.076;17.046;2023-09-19T03:18:55;4.07;;;1.67;;
31716;SDS011;18301;51.076;17.046;2023-09-19T03:23:57;3.35;;;1.90;;
31716;SDS011;18301;51.076;17.046;2023-09-19T03:28:58;4.35;;;2.20;;
31716;SDS011;18301;51.076;17.046;2023-09-19T03:34:00;4.82;;;1.98;;
31716;SDS011;18301;51.076;17.046;2023-09-19T03:39:01;3.45;;;1.98;;
31716;SDS011;18301;51.076;17.046;2023-09-19T03:44:06;4.10;;;2.30;;
31716;SDS011;18301;51.076;17.046;2023-09-19T03:49:07;4.65;;;2.15;;
31716;SDS011;18301;51.076;17.046;2023-09-19T03:54:09;5.55;;;2.40;;
31716;SDS011;18301;51.076;17.046;2023-09-19T03:59:11;5.05;;;2.30;;
31716;SDS011;18301;51.076;17.046;2023-09-19T04:04:13;4.25;;;2.30;;
31716;SDS011;18301;51.076;17.046;2023-09-19T04:09:15;3.65;;;2.40;;
31716;SDS011;18301;51.076;17.046;2023-09-19T04:14:17;4.00;;;2.38;;
31716;SDS011;18301;51.076;17.046;2023-09-19T04:19:18;3.47;;;2.20;;
31716;SDS011;18301;51.076;17.046;2023-09-19T04:24:20;4.43;;;2.50;;
31716;SDS011;18301;51.076;17.046;2023-09-19T04:29:21;5.60;;;2.00;;
31716;SDS011;18301;51.076;17.046;2023-09-19T04:34:23;7.60;;;2.33;;
31716;SDS011;18301;51.076;17.046;2023-09-19T04:39:26;4.53;;;2.13;;
31716;SDS011;18301;51.076;17.046;2023-09-19T04:44:28;4.10;;;1.70;;
31716;SDS011;18301;51.076;17.046;2023-09-19T04:49:29;6.13;;;1.95;;
31716;SDS011;18301;51.076;17.046;2023-09-19T04:54:31;4.50;;;1.95;;
31716;SDS011;18301;51.076;17.046;2023-09-19T04:59:32;3.33;;;1.73;;
31716;SDS011;18301;51.076;17.046;2023-09-19T05:04:34;2.67;;;1.45;;
31716;SDS011;18301;51.076;17.046;2023-09-19T05:09:35;4.03;;;1.88;;
31716;SDS011;18301;51.076;17.046;2023-09-19T05:14:38;4.07;;;2.08;;
31716;SDS011;18301;51.076;17.046;2023-09-19T05:19:41;3.92;;;1.83;;
31716;SDS011;18301;51.076;17.046;2023-09-19T05:24:43;3.28;;;1.67;;
31716;SDS011;18301;51.076;17.046;2023-09-19T05:29:44;3.55;;;2.00;;
31716;SDS011;18301;51.076;17.046;2023-09-19T05:34:46;5.35;;;2.45;;
31716;SDS011;18301;51.076;17.046;2023-09-19T05:39:54;4.95;;;1.85;;
31716;SDS011;18301;51.076;17.046;2023-09-19T05:44:55;4.68;;;2.10;;
31716;SDS011;18301;51.076;17.046;2023-09-19T05:49:57;4.78;;;2.10;;
31716;SDS011;18301;51.076;17.046;2023-09-19T05:55:00;4.38;;;1.98;;
31716;SDS011;18301;51.076;17.046;2023-09-19T06:00:02;3.92;;;2.20;;
31716;SDS011;18301;51.076;17.046;2023-09-19T06:05:10;3.92;;;2.00;;
31716;SDS011;18301;51.076;17.046;2023-09-19T06:10:12;6.72;;;2.38;;
31716;SDS011;18301;51.076;17.046;2023-09-19T06:15:14;5.22;;;3.10;;
31716;SDS011;18301;51.076;17.046;2023-09-19T06:20:17;5.85;;;2.60;;
31716;SDS011;18301;51.076;17.046;2023-09-19T06:25:19;7.32;;;3.00;;
31716;SDS011;18301;51.076;17.046;2023-09-19T06:30:22;5.78;;;2.65;;
31716;SDS011;18301;51.076;17.046;2023-09-19T06:35:27;3.75;;;2.22;;
31716;SDS011;18301;51.076;17.046;2023-09-19T06:40:31;5.50;;;2.00;;
31716;SDS011;18301;51.076;17.046;2023-09-19T06:45:32;4.30;;;2.35;;
31716;SDS011;18301;51.076;17.046;2023-09-19T06:50:34;4.45;;;2.10;;
31716;SDS011;18301;51.076;17.046;2023-09-19T06:55:37;5.22;;;1.92;;
31716;SDS011;18301;51.076;17.046;2023-09-19T07:00:38;4.13;;;2.15;;
31716;SDS011;18301;51.076;17.046;2023-09-19T07:05:40;4.00;;;1.98;;
31716;SDS011;18301;51.076;17.046;2023-09-19T07:10:42;3.08;;;1.70;;
31716;SDS011;18301;51.076;17.046;2023-09-19T07:20:56;4.90;;;1.88;;
31716;SDS011;18301;51.076;17.046;2023-09-19T07:26:02;4.32;;;1.80;;
31716;SDS011;18301;51.076;17.046;2023-09-19T07:31:06;2.25;;;1.58;;
31716;SDS011;18301;51.076;17.046;2023-09-19T07:36:11;2.65;;;1.73;;
31716;SDS011;18301;51.076;17.046;2023-09-19T07:41:17;2.70;;;2.05;;
31716;SDS011;18301;51.076;17.046;2023-09-19T07:46:18;3.05;;;1.88;;
31716;SDS011;18301;51.076;17.046;2023-09-19T07:51:20;5.20;;;1.77;;
31716;SDS011;18301;51.076;17.046;2023-09-19T07:56:21;2.85;;;1.92;;
31716;SDS011;18301;51.076;17.046;2023-09-19T08:01:24;3.70;;;2.25;;
31716;SDS011;18301;51.076;17.046;2023-09-19T08:06:25;3.55;;;1.75;;
31716;SDS011;18301;51.076;17.046;2023-09-19T08:11:31;2.95;;;1.90;;
31716;SDS011;18301;51.076;17.046;2023-09-19T08:16:34;3.22;;;1.67;;
31716;SDS011;18301;51.076;17.046;2023-09-19T08:21:36;4.82;;;1.85;;
31716;SDS011;18301;51.076;17.046;2023-09-19T08:26:37;6.05;;;2.08;;
31716;SDS011;18301;51.076;17.046;2023-09-19T08:31:39;4.72;;;1.55;;
31716;SDS011;18301;51.076;17.046;2023-09-19T08:36:40;4.82;;;2.08;;
31716;SDS011;18301;51.076;17.046;2023-09-19T08:41:44;1.88;;;1.63;;
31716;SDS011;18301;51.076;17.046;2023-09-19T08:46:46;2.50;;;1.85;;
31716;SDS011;18301;51.076;17.046;2023-09-19T08:51:52;2.85;;;1.60;;
31716;SDS011;18301;51.076;17.046;2023-09-19T08:56:59;3.70;;;2.00;;
31716;SDS011;18301;51.076;17.046;2023-09-19T09:02:08;3.38;;;1.92;;
31716;SDS011;18301;51.076;17.046;2023-09-19T09:07:15;3.90;;;1.80;;
31716;SDS011;18301;51.076;17.046;2023-09-19T09:12:18;4.40;;;1.92;;
31716;SDS011;18301;51.076;17.046;2023-09-19T09:17:20;2.72;;;1.55;;
31716;SDS011;18301;51.076;17.046;2023-09-19T09:22:22;1.60;;;1.50;;
31716;SDS011;18301;51.076;17.046;2023-09-19T09:27:25;2.80;;;1.65;;
31716;SDS011;18301;51.076;17.046;2023-09-19T09:32:27;3.03;;;2.05;;
31716;SDS011;18301;51.076;17.046;2023-09-19T09:37:30;4.07;;;1.67;;
31716;SDS011;18301;51.076;17.046;2023-09-19T09:42:36;2.58;;;1.75;;
31716;SDS011;18301;51.076;17.046;2023-09-19T09:47:44;3.20;;;1.83;;
31716;SDS011;18301;51.076;17.046;2023-09-19T09:52:56;2.90;;;1.92;;
31716;SDS011;18301;51.076;17.046;2023-09-19T09:58:16;4.97;;;1.77;;
31716;SDS011;18301;51.076;17.046;2023-09-19T10:03:19;3.85;;;1.60;;
31716;SDS011;18301;51.076;17.046;2023-09-19T10:08:24;3.67;;;1.80;;
31716;SDS011;18301;51.076;17.046;2023-09-19T10:13:32;2.47;;;1.43;;
31716;SDS011;18301;51.076;17.046;2023-09-19T10:18:38;3.00;;;1.60;;
31716;SDS011;18301;51.076;17.046;2023-09-19T10:23:44;2.33;;;1.52;;
31716;SDS011;18301;51.076;17.046;2023-09-19T10:28:47;1.63;;;1.25;;
31716;SDS011;18301;51.076;17.046;2023-09-19T10:33:51;3.38;;;1.70;;
31716;SDS011;18301;51.076;17.046;2023-09-19T10:38:54;3.92;;;1.77;;
31716;SDS011;18301;51.076;17.046;2023-09-19T10:44:03;1.88;;;1.50;;
31716;SDS011;18301;51.076;17.046;2023-09-19T10:49:08;4.15;;;2.00;;
31716;SDS011;18301;51.076;17.046;2023-09-19T10:54:13;2.78;;;1.60;;
31716;SDS011;18301;51.076;17.046;2023-09-19T10:59:19;2.47;;;1.30;;
31716;SDS011;18301;51.076;17.046;2023-09-19T11:04:23;2.78;;;1.60;;
31716;SDS011;18301;51.076;17.046;2023-09-19T11:09:42;2.47;;;1.15;;
31716;SDS011;18301;51.076;17.046;2023-09-19T11:14:43;2.17;;;1.33;;
31716;SDS011;18301;51.076;17.046;2023-09-19T11:46:24;1.40;;;1.10;;
31716;SDS011;18301;51.076;17.046;2023-09-19T11:51:26;3.83;;;1.15;;
31716;SDS011;18301;51.076;17.046;2023-09-19T11:56:28;2.03;;;1.17;;
31716;SDS011;18301;51.076;17.046;2023-09-19T12:01:30;1.42;;;1.15;;
31716;SDS011;18301;51.076;17.046;2023-09-19T12:06:34;2.90;;;1.20;;
31716;SDS011;18301;51.076;17.046;2023-09-19T12:11:41;3.25;;;1.20;;
31716;SDS011;18301;51.076;17.046;2023-09-19T12:16:50;1.75;;;0.93;;
31716;SDS011;18301;51.076;17.046;2023-09-19T12:21:58;2.90;;;0.90;;
31716;SDS011;18301;51.076;17.046;2023-09-19T12:27:06;1.77;;;1.02;;
31716;SDS011;18301;51.076;17.046;2023-09-19T12:32:08;1.73;;;1.20;;
31716;SDS011;18301;51.076;17.046;2023-09-19T12:37:11;2.67;;;1.55;;
31716;SDS011;18301;51.076;17.046;2023-09-19T12:42:23;1.73;;;1.13;;
31716;SDS011;18301;51.076;17.046;2023-09-19T12:47:30;1.55;;;1.20;;
31716;SDS011;18301;51.076;17.046;2023-09-19T12:52:37;1.83;;;1.42;;
31716;SDS011;18301;51.076;17.046;2023-09-19T12:57:39;1.73;;;1.20;;
31716;SDS011;18301;51.076;17.046;2023-09-19T13:03:09;2.65;;;1.20;;
31716;SDS011;18301;51.076;17.046;2023-09-19T13:08:18;2.67;;;1.20;;
31716;SDS011;18301;51.076;17.046;2023-09-19T13:13:22;1.98;;;1.40;;
31716;SDS011;18301;51.076;17.046;2023-09-19T13:18:26;3.05;;;0.93;;
31716;SDS011;18301;51.076;17.046;2023-09-19T13:23:28;1.58;;;1.00;;
31716;SDS011;18301;51.076;17.046;2023-09-19T13:28:29;2.40;;;1.20;;
31716;SDS011;18301;51.076;17.046;2023-09-19T13:33:31;2.08;;;1.13;;
31716;SDS011;18301;51.076;17.046;2023-09-19T13:38:33;1.88;;;0.90;;
31716;SDS011;18301;51.076;17.046;2023-09-19T13:43:39;2.35;;;1.05;;
31716;SDS011;18301;51.076;17.046;2023-09-19T13:48:40;1.67;;;1.08;;
31716;SDS011;18301;51.076;17.046;2023-09-19T13:53:42;2.22;;;1.27;;
31716;SDS011;18301;51.076;17.046;2023-09-19T13:58:44;2.30;;;1.17;;
31716;SDS011;18301;51.076;17.046;2023-09-19T14:03:45;2.15;;;1.05;;
31716;SDS011;18301;51.076;17.046;2023-09-19T14:08:47;3.05;;;1.30;;
31716;SDS011;18301;51.076;17.046;2023-09-19T14:13:52;1.25;;;1.10;;
31716;SDS011;18301;51.076;17.046;2023-09-19T14:18:57;3.42;;;1.15;;
31716;SDS011;18301;51.076;17.046;2023-09-19T14:24:02;6.57;;;1.23;;
31716;SDS011;18301;51.076;17.046;2023-09-19T14:29:04;1.10;;;0.93;;
31716;SDS011;18301;51.076;17.046;2023-09-19T14:34:06;3.60;;;1.35;;
31716;SDS011;18301;51.076;17.046;2023-09-19T14:39:11;1.38;;;1.15;;
31716;SDS011;18301;51.076;17.046;2023-09-19T14:44:12;2.08;;;1.10;;
31716;SDS011;18301;51.076;17.046;2023-09-19T14:49:14;2.30;;;1.30;;
31716;SDS011;18301;51.076;17.046;2023-09-19T14:54:18;1.73;;;1.35;;
31716;SDS011;18301;51.076;17.046;2023-09-19T14:59:20;2.05;;;1.05;;
31716;SDS011;18301;51.076;17.046;2023-09-19T15:04:21;1.83;;;1.23;;
31716;SDS011;18301;51.076;17.046;2023-09-19T15:09:23;2.95;;;1.00;;
31716;SDS011;18301;51.076;17.046;2023-09-19T15:14:27;4.78;;;1.40;;
31716;SDS011;18301;51.076;17.046;2023-09-19T15:19:30;1.45;;;1.10;;
31716;SDS011;18301;51.076;17.046;2023-09-19T15:24:32;2.63;;;1.17;;
31716;SDS011;18301;51.076;17.046;2023-09-19T15:29:33;1.77;;;1.10;;
31716;SDS011;18301;51.076;17.046;2023-09-19T15:34:35;3.50;;;1.30;;
31716;SDS011;18301;51.076;17.046;2023-09-19T15:39:37;2.42;;;1.10;;
31716;SDS011;18301;51.076;17.046;2023-09-19T15:44:38;2.22;;;1.23;;
31716;SDS011;18301;51.076;17.046;2023-09-19T15:49:40;2.60;;;1.30;;
31716;SDS011;18301;51.076;17.046;2023-09-19T15:54:41;2.10;;;1.40;;
31716;SDS011;18301;51.076;17.046;2023-09-19T15:59:45;2.88;;;1.33;;
31716;SDS011;18301;51.076;17.046;2023-09-19T16:04:47;1.77;;;1.30;;
31716;SDS011;18301;51.076;17.046;2023-09-19T16:09:49;4.57;;;1.60;;
31716;SDS011;18301;51.076;17.046;2023-09-19T16:14:51;3.58;;;1.20;;
31716;SDS011;18301;51.076;17.046;2023-09-19T16:19:52;2.03;;;1.05;;
31716;SDS011;18301;51.076;17.046;2023-09-19T16:24:55;1.95;;;1.10;;
31716;SDS011;18301;51.076;17.046;2023-09-19T16:29:57;1.88;;;1.40;;
31716;SDS011;18301;51.076;17.046;2023-09-19T16:34:58;3.60;;;1.40;;
31716;SDS011;18301;51.076;17.046;2023-09-19T16:40:00;2.50;;;1.45;;
31716;SDS011;18301;51.076;17.046;2023-09-19T16:45:01;2.25;;;1.58;;
31716;SDS011;18301;51.076;17.046;2023-09-19T16:50:03;2.42;;;1.77;;
31716;SDS011;18301;51.076;17.046;2023-09-19T16:55:07;2.72;;;1.30;;
31716;SDS011;18301;51.076;17.046;2023-09-19T17:00:09;3.13;;;1.58;;
31716;SDS011;18301;51.076;17.046;2023-09-19T17:05:11;3.63;;;1.60;;
31716;SDS011;18301;51.076;17.046;2023-09-19T17:10:14;2.60;;;1.60;;
31716;SDS011;18301;51.076;17.046;2023-09-19T17:15:15;2.63;;;1.63;;
31716;SDS011;18301;51.076;17.046;2023-09-19T17:20:17;2.85;;;2.00;;
31716;SDS011;18301;51.076;17.046;2023-09-19T17:25:19;3.25;;;2.00;;
31716;SDS011;18301;51.076;17.046;2023-09-19T17:30:21;2.90;;;1.80;;
31716;SDS011;18301;51.076;17.046;2023-09-19T17:35:23;5.30;;;1.90;;
31716;SDS011;18301;51.076;17.046;2023-09-19T17:40:25;4.97;;;2.00;;
31716;SDS011;18301;51.076;17.046;2023-09-19T17:45:27;3.47;;;2.10;;
31716;SDS011;18301;51.076;17.046;2023-09-19T17:50:28;3.78;;;1.90;;
31716;SDS011;18301;51.076;17.046;2023-09-19T17:55:30;7.97;;;2.88;;
31716;SDS011;18301;51.076;17.046;2023-09-19T18:00:32;9.68;;;3.20;;
31716;SDS011;18301;51.076;17.046;2023-09-19T18:05:35;5.22;;;3.20;;
31716;SDS011;18301;51.076;17.046;2023-09-19T18:10:37;6.35;;;3.13;;
31716;SDS011;18301;51.076;17.046;2023-09-19T18:15:39;4.32;;;2.90;;
31716;SDS011;18301;51.076;17.046;2023-09-19T18:20:41;10.50;;;3.10;;
31716;SDS011;18301;51.076;17.046;2023-09-19T18:25:42;5.32;;;2.92;;
31716;SDS011;18301;51.076;17.046;2023-09-19T18:30:45;5.40;;;3.40;;
31716;SDS011;18301;51.076;17.046;2023-09-19T18:35:47;5.63;;;3.47;;
31716;SDS011;18301;51.076;17.046;2023-09-19T18:40:48;4.70;;;3.45;;
31716;SDS011;18301;51.076;17.046;2023-09-19T18:45:55;6.32;;;3.67;;
31716;SDS011;18301;51.076;17.046;2023-09-19T18:51:03;8.77;;;3.60;;
31716;SDS011;18301;51.076;17.046;2023-09-19T18:56:09;5.50;;;3.70;;
31716;SDS011;18301;51.076;17.046;2023-09-19T19:01:14;5.70;;;3.30;;
31716;SDS011;18301;51.076;17.046;2023-09-19T19:06:17;6.13;;;3.55;;
31716;SDS011;18301;51.076;17.046;2023-09-19T19:11:19;4.63;;;3.35;;
31716;SDS011;18301;51.076;17.046;2023-09-19T19:16:23;6.32;;;3.67;;
31716;SDS011;18301;51.076;17.046;2023-09-19T19:21:27;4.57;;;3.35;;
31716;SDS011;18301;51.076;17.046;2023-09-19T19:26:29;5.00;;;3.28;;
31716;SDS011;18301;51.076;17.046;2023-09-19T19:31:32;5.07;;;3.25;;
31716;SDS011;18301;51.076;17.046;2023-09-19T19:36:36;5.43;;;3.50;;
31716;SDS011;18301;51.076;17.046;2023-09-19T19:41:37;6.95;;;3.75;;
31716;SDS011;18301;51.076;17.046;2023-09-19T19:46:40;7.72;;;3.90;;
31716;SDS011;18301;51.076;17.046;2023-09-19T19:51:42;8.57;;;3.65;;
31716;SDS011;18301;51.076;17.046;2023-09-19T19:56:45;7.82;;;3.75;;
31716;SDS011;18301;51.076;17.046;2023-09-19T20:01:48;6.03;;;3.30;;
31716;SDS011;18301;51.076;17.046;2023-09-19T20:06:50;7.43;;;3.88;;
31716;SDS011;18301;51.076;17.046;2023-09-19T20:11:52;9.10;;;4.40;;
31716;SDS011;18301;51.076;17.046;2023-09-19T20:16:55;5.25;;;3.50;;
31716;SDS011;18301;51.076;17.046;2023-09-19T20:21:59;9.70;;;5.50;;
31716;SDS011;18301;51.076;17.046;2023-09-19T20:27:07;7.70;;;4.40;;
31716;SDS011;18301;51.076;17.046;2023-09-19T20:32:08;10.35;;;5.20;;
31716;SDS011;18301;51.076;17.046;2023-09-19T20:37:10;7.15;;;4.22;;
31716;SDS011;18301;51.076;17.046;2023-09-19T20:42:12;6.07;;;3.70;;
31716;SDS011;18301;51.076;17.046;2023-09-19T20:47:13;4.75;;;3.20;;
31716;SDS011;18301;51.076;17.046;2023-09-19T20:52:15;8.13;;;3.50;;
31716;SDS011;18301;51.076;17.046;2023-09-19T20:57:18;7.10;;;3.50;;
31716;SDS011;18301;51.076;17.046;2023-09-19T21:02:19;5.55;;;3.60;;
31716;SDS011;18301;51.076;17.046;2023-09-19T21:07:21;6.90;;;3.47;;
31716;SDS011;18301;51.076;17.046;2023-09-19T21:12:23;5.30;;;3.15;;
31716;SDS011;18301;51.076;17.046;2023-09-19T21:17:24;6.10;;;3.85;;
31716;SDS011;18301;51.076;17.046;2023-09-19T21:22:27;5.80;;;3.10;;
31716;SDS011;18301;51.076;17.046;2023-09-19T21:27:29;6.00;;;3.35;;
31716;SDS011;18301;51.076;17.046;2023-09-19T21:32:32;7.93;;;3.95;;
31716;SDS011;18301;51.076;17.046;2023-09-19T21:37:34;5.43;;;3.67;;
31716;SDS011;18301;51.076;17.046;2023-09-19T21:42:35;6.70;;;3.83;;
31716;SDS011;18301;51.076;17.046;2023-09-19T21:47:38;6.05;;;3.67;;
31716;SDS011;18301;51.076;17.046;2023-09-19T21:52:40;6.25;;;4.00;;
31716;SDS011;18301;51.076;17.046;2023-09-19T21:57:41;5.18;;;3.42;;
31716;SDS011;18301;51.076;17.046;2023-09-19T22:02:43;5.82;;;3.35;;
31716;SDS011;18301;51.076;17.046;2023-09-19T22:07:44;5.05;;;3.13;;
31716;SDS011;18301;51.076;17.046;2023-09-19T22:12:46;4.97;;;3.40;;
31716;SDS011;18301;51.076;17.046;2023-09-19T22:17:48;4.93;;;3.20;;
31716;SDS011;18301;51.076;17.046;2023-09-19T22:22:49;6.88;;;4.28;;
31716;SDS011;18301;51.076;17.046;2023-09-19T22:27:53;6.25;;;3.60;;
31716;SDS011;18301;51.076;17.046;2023-09-19T22:32:54;6.22;;;3.60;;
31716;SDS011;18301;51.076;17.046;2023-09-19T22:37:57;6.22;;;3.63;;
31716;SDS011;18301;51.076;17.046;2023-09-19T22:43:14;9.10;;;3.42;;
31716;SDS011;18301;51.076;17.046;2023-09-19T22:48:15;5.85;;;3.30;;
31716;SDS011;18301;51.076;17.046;2023-09-19T22:53:17;5.50;;;3.42;;
31716;SDS011;18301;51.076;17.046;2023-09-19T22:58:21;6.18;;;3.30;;
31716;SDS011;18301;51.076;17.046;2023-09-19T23:03:24;5.25;;;3.20;;
31716;SDS011;18301;51.076;17.046;2023-09-19T23:08:27;6.18;;;3.53;;
31716;SDS011;18301;51.076;17.046;2023-09-19T23:13:29;5.78;;;3.10;;
31716;SDS011;18301;51.076;17.046;2023-09-19T23:18:34;5.03;;;3.30;;
31716;SDS011;18301;51.076;17.046;2023-09-19T23:23:37;6.82;;;3.28;;
31716;SDS011;18301;51.076;17.046;2023-09-19T23:28:42;5.43;;;3.42;;
31716;SDS011;18301;51.076;17.046;2023-09-19T23:33:49;6.25;;;3.05;;
31716;SDS011;18301;51.076;17.046;2023-09-19T23:38:51;5.55;;;3.38;;
31716;SDS011;18301;51.076;17.046;2023-09-19T23:43:58;6.13;;;3.67;;
31716;SDS011;18301;51.076;17.046;2023-09-19T23:49:00;5.60;;;3.25;;
31716;SDS011;18301;51.076;17.046;2023-09-19T23:54:04;3.67;;;2.95;;
31716;SDS011;18301;51.076;17.046;2023-09-19T23:59:08;5.22;;;3.22;;
